Time;durP1;ratioP1;P1;durP2;ratioP2;P2;SDS_P1;SDS_P2;PMS_P1;PMS_P2;Temp;Humidity;BMP_temperature;BMP_pressure;BME280_temperature;BME280_humidity;BME280_pressure;Samples;Min_cycle;Max_cycle;Signal;HPM_P1;HPM_P2
2021/03/09 00:00:55;;;;;;;10.00;2.70;;;1.90;91.20;;;2.81;51.11;101847.41;5028419;28;20576;-75
2021/03/09 00:03:21;;;;;;;8.40;2.27;;;1.90;91.30;;;2.79;51.02;101847.41;5030698;28;20276;-74
2021/03/09 00:05:48;;;;;;;9.30;2.40;;;1.90;91.20;;;2.82;51.02;101841.38;5028780;28;20189;-74
2021/03/09 00:08:14;;;;;;;9.60;2.47;;;1.90;91.20;;;2.79;50.71;101842.22;5027901;28;20682;-77
2021/03/09 00:10:40;;;;;;;10.40;2.60;;;1.90;91.10;;;2.76;50.53;101842.19;5033292;28;20221;-77
2021/03/09 00:13:08;;;;;;;8.37;1.80;;;1.80;91.20;;;2.72;51.00;101837.81;5032989;28;20307;-77
2021/03/09 00:15:34;;;;;;;11.53;2.30;;;1.80;91.10;;;2.73;50.81;101838.69;5032791;28;20201;-77
2021/03/09 00:18:00;;;;;;;9.37;2.40;;;1.80;91.30;;;2.70;50.54;101834.34;5028826;28;20223;-77
2021/03/09 00:20:26;;;;;;;8.67;2.23;;;1.80;91.00;;;2.70;50.60;101834.34;5024049;28;20244;-77
2021/03/09 00:22:53;;;;;;;8.50;2.30;;;1.80;91.10;;;2.68;50.55;101835.19;5028702;28;20195;-77
2021/03/09 00:25:19;;;;;;;9.83;2.53;;;1.70;91.10;;;2.67;50.95;101830.84;5026514;28;20599;-77
2021/03/09 00:27:45;;;;;;;7.90;2.40;;;1.70;91.10;;;2.66;50.81;101831.72;5027517;28;20624;-78
2021/03/09 00:30:14;;;;;;;10.80;2.60;;;1.70;91.20;;;2.64;51.04;101828.25;5029087;28;20267;-78
2021/03/09 00:32:41;;;;;;;11.10;2.50;;;1.70;91.30;;;2.63;50.79;101834.28;5048333;28;20193;-78
2021/03/09 00:35:08;;;;;;;8.67;2.20;;;1.70;91.30;;;2.60;51.00;101831.66;5028528;28;20276;-77
2021/03/09 00:37:35;;;;;;;12.10;2.53;;;1.70;91.30;;;2.60;51.13;101836.81;5028768;28;20300;-78
2021/03/09 00:40:01;;;;;;;11.53;2.90;;;1.70;91.40;;;2.58;50.99;101833.34;5030562;28;20213;-78
2021/03/09 00:42:27;;;;;;;7.80;2.30;;;1.60;91.50;;;2.58;51.53;101828.19;5030079;28;20721;-77
2021/03/09 00:44:53;;;;;;;9.73;2.50;;;1.60;91.70;;;2.58;51.24;101842.81;5029451;28;20665;-78
2021/03/09 00:47:20;;;;;;;8.07;2.47;;;1.70;91.70;;;2.57;51.23;101837.63;5028003;28;20662;-78
2021/03/09 00:49:47;;;;;;;9.43;2.77;;;1.60;91.80;;;2.58;51.69;101839.34;5030697;28;20190;-78
2021/03/09 00:52:13;;;;;;;9.50;2.40;;;1.70;91.90;;;2.58;51.42;101834.19;5029054;28;20232;-77
2021/03/09 00:54:39;;;;;;;8.23;2.33;;;1.60;92.00;;;2.54;51.92;101833.28;5023063;28;20280;-78
2021/03/09 00:57:08;;;;;;;9.50;2.20;;;1.60;92.00;;;2.49;51.86;101832.34;5030955;28;20260;-78
2021/03/09 00:59:34;;;;;;;10.93;2.67;;;1.60;92.10;;;2.50;52.20;101828.94;5023506;28;20529;-76
2021/03/09 01:02:00;;;;;;;7.40;2.13;;;1.60;92.20;;;2.50;51.77;101823.78;5030649;28;20213;-78
2021/03/09 01:04:27;;;;;;;11.23;2.80;;;1.60;92.10;;;2.50;51.81;101821.19;5030296;28;20202;-78
2021/03/09 01:06:54;;;;;;;12.40;2.80;;;1.60;92.10;;;2.52;51.84;101826.38;5030080;28;20190;-78
2021/03/09 01:09:20;;;;;;;9.43;2.60;;;1.60;92.10;;;2.49;52.08;101806.53;5024201;28;20268;-78
2021/03/09 01:11:46;;;;;;;10.03;2.40;;;1.60;92.20;;;2.53;52.10;101808.31;5021954;28;20220;-78
2021/03/09 01:14:12;;;;;;;8.37;2.43;;;1.60;92.60;;;2.52;52.07;101809.19;5031705;28;20214;-78
2021/03/09 01:16:39;;;;;;;10.87;2.93;;;1.60;92.50;;;2.49;52.61;101806.53;5023543;28;20190;-78
2021/03/09 01:19:05;;;;;;;9.00;2.83;;;1.60;92.80;;;2.46;53.11;101796.16;5026461;28;20193;-78
2021/03/09 01:21:32;;;;;;;9.40;2.60;;;1.60;93.00;;;2.47;53.08;101802.22;5027400;28;20225;-78
2021/03/09 01:23:58;;;;;;;7.90;2.50;;;1.60;92.80;;;2.46;52.73;101798.75;5027904;28;20189;-79
2021/03/09 01:26:24;;;;;;;9.07;2.60;;;1.60;93.00;;;2.42;52.84;101793.53;5025854;28;20217;-80
2021/03/09 01:28:51;;;;;;;8.03;2.40;;;1.60;92.70;;;2.40;52.60;101805.56;5025975;28;20196;-78
2021/03/09 01:31:17;;;;;;;10.67;2.67;;;1.50;92.70;;;2.41;52.42;101795.25;5020482;28;20222;-78
2021/03/09 01:33:43;;;;;;;9.90;2.60;;;1.50;92.60;;;2.41;52.56;101787.50;5027979;28;20244;-78
2021/03/09 01:36:10;;;;;;;12.47;2.70;;;1.50;92.80;;;2.43;52.59;101785.81;5042625;28;20201;-78
2021/03/09 01:38:37;;;;;;;10.60;2.90;;;1.60;93.00;;;2.48;52.56;101780.69;5027466;28;20201;-78
2021/03/09 01:41:04;;;;;;;16.00;2.53;;;1.50;93.00;;;2.47;52.58;101779.84;5026350;28;20237;-78
2021/03/09 01:43:31;;;;;;;9.33;2.63;;;1.50;92.90;;;2.44;52.71;101784.94;5042488;28;20186;-79
2021/03/09 01:45:58;;;;;;;9.93;2.77;;;1.50;93.00;;;2.38;52.77;101779.72;5054268;28;20281;-77
2021/03/09 01:48:32;;;;;;;11.37;2.93;;;1.50;93.20;;;2.35;52.98;101777.09;5047279;28;20190;-78
2021/03/09 01:50:58;;;;;;;11.37;3.07;;;1.50;93.20;;;2.32;53.17;101776.19;5030641;28;20248;-77
2021/03/09 01:53:25;;;;;;;9.20;2.77;;;1.40;93.20;;;2.31;52.67;101774.47;5020462;28;20200;-78
2021/03/09 01:55:52;;;;;;;7.73;2.50;;;1.40;93.20;;;2.29;53.14;101763.25;5046077;28;20201;-78
2021/03/09 01:58:22;;;;;;;10.70;2.53;;;1.40;93.20;;;2.25;53.14;101762.34;5020656;28;20201;-78
2021/03/09 02:00:50;;;;;;;9.30;2.70;;;1.40;93.40;;;2.23;52.91;101758.88;5021785;28;20232;-78
2021/03/09 02:03:16;;;;;;;10.80;2.37;;;1.40;93.50;;;2.21;53.41;101765.72;5027999;28;20204;-77
2021/03/09 02:05:42;;;;;;;8.83;2.73;;;1.30;93.70;;;2.17;53.19;101765.66;5030826;28;20198;-78
2021/03/09 02:08:09;;;;;;;9.90;2.83;;;1.30;93.40;;;2.15;53.19;101770.81;5027861;28;20196;-78
2021/03/09 02:10:36;;;;;;;7.53;2.27;;;1.20;93.60;;;2.09;53.23;101765.53;5023539;28;20272;-77
2021/03/09 02:13:23;;;;;;;12.13;2.77;;;1.20;93.60;;;2.08;53.49;101763.81;5043337;28;20297;-78
2021/03/09 02:16:01;;;;;;;11.57;3.00;;;1.20;93.60;;;2.10;53.15;101767.31;5042782;28;20194;-77
2021/03/09 02:18:40;;;;;;;11.67;2.37;;;1.20;93.60;;;2.09;53.13;101755.22;5022273;28;20198;-77
2021/03/09 02:21:42;;;;;;;9.77;2.70;;;1.20;93.70;;;2.11;52.92;101763.00;5027343;28;20716;-78
2021/03/09 02:25:02;;;;;;;10.57;3.00;;;1.20;93.50;;;2.09;53.10;101754.38;5034989;28;20193;-79
2021/03/09 02:27:37;;;;;;;10.67;2.83;;;1.20;93.60;;;2.10;52.94;101736.31;5025164;28;20198;-77
2021/03/09 02:30:24;;;;;;;8.83;2.20;;;1.20;93.80;;;2.09;53.14;101752.63;5026982;28;20646;-78
2021/03/09 02:33:03;;;;;;;9.80;2.53;;;1.10;93.80;;;2.07;53.01;101754.38;5029160;28;20645;-78
2021/03/09 02:35:31;;;;;;;9.53;2.50;;;1.10;93.80;;;2.07;53.13;101751.78;5030277;28;20197;-78
2021/03/09 02:38:03;;;;;;;10.37;2.70;;;1.10;93.80;;;2.07;53.41;101751.78;5034007;28;20198;-78
2021/03/09 02:40:33;;;;;;;11.00;2.40;;;1.10;93.90;;;2.04;53.47;101749.13;5049074;28;20221;-77
2021/03/09 02:43:07;;;;;;;6.23;2.27;;;1.10;94.00;;;2.04;53.72;101749.13;5051651;28;20281;-79
2021/03/09 02:45:35;;;;;;;9.40;2.13;;;1.10;94.10;;;2.05;53.53;101747.44;5056509;28;20201;-80
2021/03/09 02:48:05;;;;;;;9.27;2.30;;;1.10;94.40;;;2.07;53.53;101750.91;5057401;28;20177;-78
2021/03/09 02:50:33;;;;;;;9.80;2.83;;;1.20;94.60;;;2.07;53.60;101748.31;5050254;28;20642;-73
2021/03/09 02:53:07;;;;;;;9.90;2.70;;;1.20;94.40;;;2.03;53.72;101738.78;5049962;28;20181;-78
2021/03/09 02:55:37;;;;;;;9.93;2.53;;;1.10;94.30;;;2.01;53.86;101738.78;5057345;28;20185;-78
2021/03/09 02:58:08;;;;;;;12.77;2.80;;;1.10;94.70;;;1.99;53.92;101740.47;5054836;28;20200;-78
2021/03/09 03:00:37;;;;;;;14.80;2.40;;;1.10;94.60;;;1.96;53.98;101737.84;5047012;28;20233;-78
2021/03/09 03:03:08;;;;;;;10.40;2.60;;;1.00;94.60;;;1.93;53.71;101742.97;5032364;28;20192;-78
2021/03/09 03:05:35;;;;;;;10.87;2.87;;;1.00;94.70;;;1.91;54.14;101736.06;5042953;28;20193;-78
2021/03/09 03:08:05;;;;;;;9.63;2.47;;;1.00;94.80;;;1.89;54.19;101732.59;5030266;28;20194;-77
2021/03/09 03:10:33;;;;;;;11.00;2.40;;;1.00;95.00;;;1.90;54.26;101727.47;5030793;28;20213;-78
2021/03/09 03:13:06;;;;;;;9.17;2.53;;;1.00;95.10;;;1.93;54.32;101731.78;5029509;28;20588;-79
2021/03/09 03:15:34;;;;;;;11.57;2.90;;;1.00;95.50;;;1.92;54.29;101730.94;5046742;28;20205;-78
2021/03/09 03:18:04;;;;;;;7.20;2.37;;;1.00;95.20;;;1.87;54.33;101735.16;5021869;28;20190;-77
2021/03/09 03:20:31;;;;;;;11.23;2.63;;;1.00;95.50;;;1.86;54.77;101735.13;5025925;28;20570;-78
2021/03/09 03:22:58;;;;;;;10.27;2.67;;;0.90;95.30;;;1.84;54.81;101737.66;5032682;28;20220;-78
2021/03/09 03:25:26;;;;;;;11.20;2.63;;;0.90;95.50;;;1.81;54.81;101737.63;5025118;28;20709;-77
2021/03/09 03:27:55;;;;;;;10.83;2.53;;;0.90;95.50;;;1.80;54.70;101735.91;5029363;28;20197;-78
2021/03/09 03:30:23;;;;;;;8.77;2.63;;;0.90;95.60;;;1.82;54.84;101734.22;5032585;28;20200;-77
2021/03/09 03:32:50;;;;;;;8.47;2.40;;;0.90;95.60;;;1.83;54.81;101725.63;5023748;28;20198;-77
2021/03/09 03:35:17;;;;;;;7.97;2.30;;;0.90;95.70;;;1.84;54.53;101722.19;5022043;28;20669;-78
2021/03/09 03:37:45;;;;;;;10.87;2.57;;;0.90;95.60;;;1.83;54.71;101727.34;5030980;28;20724;-78
2021/03/09 03:40:15;;;;;;;9.60;2.70;;;0.90;95.80;;;1.84;54.69;101731.66;5031995;28;20216;-78
2021/03/09 03:42:49;;;;;;;6.67;2.17;;;0.90;95.70;;;1.84;54.68;101726.50;5040087;28;20202;-78
2021/03/09 03:45:19;;;;;;;9.40;2.90;;;0.90;95.70;;;1.82;54.42;101723.91;5030659;28;20189;-78
2021/03/09 03:47:48;;;;;;;8.00;2.57;;;0.90;95.80;;;1.82;54.22;101723.03;5021757;28;20708;-78
2021/03/09 03:50:17;;;;;;;8.13;2.07;;;0.90;95.90;;;1.80;54.99;101720.44;5028044;28;20193;-78
2021/03/09 03:52:59;;;;;;;10.30;2.63;;;0.90;96.00;;;1.85;54.69;101723.94;5030744;28;20255;-78
2021/03/09 03:55:41;;;;;;;8.17;2.30;;;0.90;96.10;;;1.81;54.97;101722.16;5045232;28;20193;-78
2021/03/09 03:58:16;;;;;;;11.13;2.33;;;0.90;96.00;;;1.78;54.80;101718.66;5031134;28;20204;-78
2021/03/09 04:00:44;;;;;;;11.83;2.70;;;0.90;96.20;;;1.75;55.21;101722.09;5023764;28;20217;-78
2021/03/09 04:03:14;;;;;;;10.47;3.00;;;0.90;96.30;;;1.75;55.01;101716.91;5021830;28;20194;-78
2021/03/09 04:05:47;;;;;;;9.70;2.33;;;0.90;96.20;;;1.75;55.14;101711.75;5027958;28;20198;-78
2021/03/09 04:08:16;;;;;;;13.33;2.90;;;0.90;96.20;;;1.75;54.77;101706.59;5033180;28;20251;-78
2021/03/09 04:10:46;;;;;;;10.87;2.63;;;0.90;96.30;;;1.76;54.88;101707.47;5023004;28;20225;-78
2021/03/09 04:13:16;;;;;;;14.20;3.10;;;0.90;96.20;;;1.78;55.07;101695.44;5033147;28;20654;-78
2021/03/09 04:15:42;;;;;;;8.60;3.00;;;0.90;96.30;;;1.80;54.58;101702.38;5026594;28;20193;-77
2021/03/09 04:18:12;;;;;;;7.73;2.27;;;0.90;96.00;;;1.79;54.63;101705.78;5024838;28;20198;-78
2021/03/09 04:20:44;;;;;;;8.73;2.30;;;0.90;96.10;;;1.76;54.59;101703.16;5025635;28;20228;-78
2021/03/09 04:23:12;;;;;;;9.87;2.97;;;0.90;96.10;;;1.72;54.84;101704.00;5024883;28;20712;-77
2021/03/09 04:25:42;;;;;;;8.57;2.43;;;0.90;96.20;;;1.72;54.88;101705.69;5028092;28;20201;-77
2021/03/09 04:28:10;;;;;;;10.30;2.80;;;0.90;96.40;;;1.78;54.75;101695.44;5032372;28;20225;-77
2021/03/09 04:30:37;;;;;;;8.87;2.67;;;0.90;96.30;;;1.79;54.89;101698.03;5022249;28;20235;-78
2021/03/09 04:33:05;;;;;;;9.33;2.67;;;0.90;96.40;;;1.75;55.17;101696.28;5031989;28;20278;-77
2021/03/09 04:35:31;;;;;;;10.40;2.83;;;0.90;96.30;;;1.70;55.12;101695.34;5035849;28;20185;-78
2021/03/09 04:38:00;;;;;;;12.70;2.70;;;0.80;96.50;;;1.71;54.93;101693.66;5054039;28;20202;-78
2021/03/09 04:40:27;;;;;;;10.93;2.83;;;0.80;96.50;;;1.71;55.06;101688.50;5049758;28;20211;-78
2021/03/09 04:42:53;;;;;;;10.13;2.63;;;0.80;96.50;;;1.70;55.06;101687.63;5032609;28;20208;-78
2021/03/09 04:45:19;;;;;;;10.13;2.50;;;0.80;96.60;;;1.70;54.76;101687.63;5030552;28;20208;-77
2021/03/09 04:47:47;;;;;;;10.30;2.50;;;0.80;96.70;;;1.72;55.00;101696.25;5032784;28;20193;-77
2021/03/09 04:50:16;;;;;;;9.67;2.37;;;0.80;96.90;;;1.73;54.95;101697.09;5029193;28;20198;-78
2021/03/09 04:52:47;;;;;;;9.13;2.37;;;0.80;96.60;;;1.77;54.91;101694.59;5028635;28;20193;-77
2021/03/09 04:55:22;;;;;;;7.30;2.63;;;0.90;96.70;;;1.79;55.19;101694.63;5024148;28;20194;-78
2021/03/09 04:57:49;;;;;;;7.63;2.40;;;0.90;96.70;;;1.75;54.60;101688.56;5021186;28;20198;-77
2021/03/09 05:00:18;;;;;;;9.10;2.10;;;0.80;96.50;;;1.74;54.67;101686.78;5026716;28;20202;-77
2021/03/09 05:02:47;;;;;;;10.40;2.57;;;0.80;96.70;;;1.72;54.90;101683.34;5017935;28;20190;-77
2021/03/09 05:05:15;;;;;;;8.47;2.33;;;0.80;96.80;;;1.70;55.01;101685.03;5028535;28;20190;-77
2021/03/09 05:07:41;;;;;;;8.10;2.63;;;0.80;96.70;;;1.68;54.98;101684.16;5030348;28;20202;-78
2021/03/09 05:10:10;;;;;;;10.63;2.70;;;0.80;96.90;;;1.71;54.94;101683.34;5027018;28;20201;-77
2021/03/09 05:12:41;;;;;;;11.47;2.30;;;0.80;97.20;;;1.69;55.40;101677.28;5027966;28;20193;-77
2021/03/09 05:15:09;;;;;;;9.37;2.57;;;0.80;97.00;;;1.68;55.32;101689.31;5024232;28;20571;-77
2021/03/09 05:17:35;;;;;;;11.07;2.83;;;0.80;97.10;;;1.64;55.34;101682.34;5027111;28;20201;-74
2021/03/09 05:20:02;;;;;;;12.17;2.93;;;0.80;97.00;;;1.62;55.48;101684.06;5029524;28;20193;-77
2021/03/09 05:22:28;;;;;;;9.60;3.07;;;0.80;97.10;;;1.64;55.41;101681.50;5029620;28;20590;-78
2021/03/09 05:24:54;;;;;;;9.23;2.63;;;0.80;97.10;;;1.65;55.20;101684.13;5025854;28;20210;-77
2021/03/09 05:27:22;;;;;;;9.57;2.97;;;0.80;97.00;;;1.67;54.96;101679.84;5039296;28;20194;-78
2021/03/09 05:29:49;;;;;;;11.63;2.80;;;0.80;97.00;;;1.61;54.90;101687.47;5027721;28;20239;-78
2021/03/09 05:32:15;;;;;;;8.10;2.60;;;0.70;97.10;;;1.62;55.34;101688.34;5031518;28;20209;-78
2021/03/09 05:34:42;;;;;;;11.20;2.90;;;0.70;97.20;;;1.60;55.12;101685.75;5027620;28;20284;-77
2021/03/09 05:37:09;;;;;;;11.77;3.00;;;0.70;97.30;;;1.52;55.32;101689.94;5044218;28;20194;-77
2021/03/09 05:39:35;;;;;;;9.10;2.97;;;0.70;97.30;;;1.51;55.19;101689.94;5038993;28;20201;-77
2021/03/09 05:42:03;;;;;;;12.63;2.73;;;0.60;97.50;;;1.52;55.46;101687.38;5017697;28;20229;-76
2021/03/09 05:44:32;;;;;;;9.13;3.13;;;0.60;97.30;;;1.51;55.28;101690.78;5027196;28;20737;-77
2021/03/09 05:47:00;;;;;;;11.03;2.60;;;0.60;97.60;;;1.53;55.52;101689.09;5028003;28;20197;-78
2021/03/09 05:49:26;;;;;;;11.83;3.13;;;0.60;97.80;;;1.54;55.43;101690.81;5025828;28;20201;-77
2021/03/09 05:51:53;;;;;;;13.03;2.97;;;0.60;97.70;;;1.57;55.72;101690.00;5039848;28;20214;-77
2021/03/09 05:54:20;;;;;;;11.70;3.10;;;0.60;97.80;;;1.61;55.59;101684.91;5023923;28;20243;-77
2021/03/09 05:56:47;;;;;;;14.67;3.13;;;0.70;97.90;;;1.62;55.77;101681.50;5029034;28;20281;-77
2021/03/09 05:59:13;;;;;;;9.20;2.80;;;0.70;98.00;;;1.61;55.75;101674.59;5020003;28;20186;-78
2021/03/09 06:01:39;;;;;;;10.43;2.53;;;0.70;98.10;;;1.60;55.79;101670.28;5031640;28;20293;-77
2021/03/09 06:04:07;;;;;;;12.47;3.20;;;0.70;98.00;;;1.63;55.65;101674.59;5026941;28;20198;-78
2021/03/09 06:06:34;;;;;;;10.53;2.97;;;0.70;98.30;;;1.65;55.56;101678.06;5031185;28;20225;-77
2021/03/09 06:09:01;;;;;;;11.60;2.67;;;0.70;98.30;;;1.65;55.64;101678.06;5027784;28;20209;-77
2021/03/09 06:11:27;;;;;;;7.87;2.37;;;0.70;98.30;;;1.60;55.95;101679.72;5048004;28;20217;-78
2021/03/09 06:13:54;;;;;;;10.60;2.77;;;0.70;98.50;;;1.54;56.34;101682.22;5033469;28;20582;-77
2021/03/09 06:16:21;;;;;;;9.27;3.00;;;0.60;98.70;;;1.54;56.05;101683.06;5030167;28;20228;-77
2021/03/09 06:18:55;;;;;;;10.37;3.10;;;0.60;98.60;;;1.59;56.41;101683.16;5029638;28;20197;-77
2021/03/09 06:21:26;;;;;;;11.87;3.27;;;0.70;98.70;;;1.62;56.22;101684.06;5029463;28;20283;-77
2021/03/09 06:23:53;;;;;;;10.90;2.73;;;0.70;98.70;;;1.61;55.95;101678.91;5026532;28;20194;-78
2021/03/09 06:26:35;;;;;;;11.87;2.77;;;0.70;98.90;;;1.60;56.09;101684.88;5032302;28;20189;-77
2021/03/09 06:29:12;;;;;;;11.20;2.50;;;0.70;99.30;;;1.66;56.27;101685.84;5025187;28;20199;-78
2021/03/09 06:31:40;;;;;;;12.47;2.67;;;0.80;99.20;;;1.71;56.47;101671.28;5016569;28;20223;-78
2021/03/09 06:34:27;;;;;;;15.10;3.60;;;0.80;98.90;;;1.79;56.19;101677.41;5026506;28;20194;-77
2021/03/09 06:37:10;;;;;;;11.10;3.27;;;1.00;98.90;;;1.85;55.86;101682.66;5028993;28;20200;-77
2021/03/09 06:39:54;;;;;;;10.23;2.70;;;1.00;98.70;;;1.86;55.56;101683.53;5027235;28;20243;-78
2021/03/09 06:42:24;;;;;;;17.93;3.40;;;1.00;98.50;;;1.86;55.62;101684.38;5029241;28;20232;-78
2021/03/09 06:44:55;;;;;;;9.10;2.87;;;1.00;98.70;;;1.85;55.50;101687.84;5028848;28;20190;-78
2021/03/09 06:47:40;;;;;;;14.07;3.63;;;1.00;98.60;;;1.85;55.76;101687.84;5030012;28;20212;-77
2021/03/09 06:50:11;;;;;;;11.90;3.30;;;1.10;98.70;;;1.91;55.51;101687.91;5029093;28;20759;-77
2021/03/09 06:52:39;;;;;;;11.33;3.47;;;1.10;98.70;;;2.00;55.50;101687.16;5034095;28;20208;-78
2021/03/09 06:55:09;;;;;;;12.90;3.70;;;1.20;98.60;;;2.10;55.21;101694.16;5033160;28;20199;-78
2021/03/09 06:57:37;;;;;;;10.33;2.93;;;1.30;98.60;;;2.12;55.52;101693.34;5030902;28;20203;-78
2021/03/09 07:00:10;;;;;;;15.97;3.77;;;1.30;98.40;;;2.14;55.48;101693.38;5027788;28;20194;-77
2021/03/09 07:02:38;;;;;;;9.70;3.00;;;1.30;98.50;;;2.18;55.02;101692.53;5028550;28;20197;-78
2021/03/09 07:05:08;;;;;;;13.47;3.90;;;1.40;98.40;;;2.18;55.02;101690.84;5019402;28;20194;-76
2021/03/09 07:07:36;;;;;;;10.07;3.13;;;1.40;98.50;;;2.21;55.26;101690.88;5029057;28;20689;-78
2021/03/09 07:10:10;;;;;;;11.97;3.23;;;1.50;98.30;;;2.24;55.33;101690.88;5030272;28;20190;-77
2021/03/09 07:12:40;;;;;;;14.80;4.13;;;1.50;98.40;;;2.25;55.48;101692.66;5025864;28;20194;-75
2021/03/09 07:15:09;;;;;;;12.27;3.93;;;1.50;98.30;;;2.30;55.42;101690.97;5031347;28;20205;-77
2021/03/09 07:17:38;;;;;;;12.50;3.30;;;1.60;98.30;;;2.34;54.85;101695.31;5031647;28;20204;-78
2021/03/09 07:20:07;;;;;;;16.37;4.00;;;1.60;98.20;;;2.42;55.18;101696.28;5034065;28;20194;-79
2021/03/09 07:22:37;;;;;;;17.27;4.57;;;1.60;98.20;;;2.52;54.58;101695.53;5055681;28;20201;-78
2021/03/09 07:25:07;;;;;;;12.97;3.97;;;1.70;98.10;;;2.55;54.74;101694.69;5042092;28;20302;-79
2021/03/09 07:27:41;;;;;;;14.20;4.57;;;1.70;98.00;;;2.62;54.51;101701.66;5043002;28;20202;-80
2021/03/09 07:30:11;;;;;;;13.97;4.50;;;1.80;97.90;;;2.71;54.19;101700.91;5062400;28;20198;-83
2021/03/09 07:32:41;;;;;;;13.53;4.23;;;1.90;97.90;;;2.74;54.18;101700.91;5045165;28;20264;-76
2021/03/09 07:35:10;;;;;;;13.83;4.07;;;1.90;98.10;;;2.77;54.28;101695.78;5040830;28;20205;-81
2021/03/09 07:37:40;;;;;;;10.13;4.30;;;2.00;97.70;;;2.76;53.91;101694.94;5042177;28;20229;-82
2021/03/09 07:40:11;;;;;;;12.77;3.97;;;2.00;97.40;;;2.78;53.87;101700.13;5036076;28;20197;-76
2021/03/09 07:42:38;;;;;;;14.43;4.63;;;2.00;97.40;;;2.80;53.82;101694.09;5030912;28;20189;-74
2021/03/09 07:45:09;;;;;;;14.80;4.23;;;2.00;97.50;;;2.84;53.62;101692.41;5033943;28;20197;-72
2021/03/09 07:47:43;;;;;;;15.13;4.60;;;2.00;97.30;;;2.86;53.43;101698.47;5020876;28;20193;-74
2021/03/09 07:50:14;;;;;;;14.57;4.23;;;2.00;97.40;;;2.89;53.57;101701.94;5017806;28;20214;-74
2021/03/09 07:53:08;;;;;;;12.70;4.40;;;2.10;97.30;;;2.91;53.64;101694.19;5020235;28;20202;-74
2021/03/09 07:55:36;;;;;;;12.93;3.83;;;2.20;97.60;;;2.92;53.80;101695.91;5017253;28;20626;-75
2021/03/09 07:58:20;;;;;;;14.80;4.73;;;2.20;97.50;;;2.95;53.62;101691.66;5016504;28;20280;-75
2021/03/09 08:00:54;;;;;;;14.33;4.37;;;2.30;97.40;;;3.01;53.56;101681.38;5015717;28;20618;-74
2021/03/09 08:03:22;;;;;;;12.40;4.37;;;2.40;97.10;;;3.13;53.45;101680.63;5016007;28;20197;-75
2021/03/09 08:05:55;;;;;;;17.10;4.47;;;2.50;96.90;;;3.21;53.26;101678.97;5007318;28;20257;-75
2021/03/09 08:08:43;;;;;;;13.77;4.50;;;2.50;96.60;;;3.21;52.77;101671.19;5018246;28;20201;-75
2021/03/09 08:11:38;;;;;;;16.07;4.40;;;2.50;96.80;;;3.28;53.14;101683.31;5014353;28;20236;-74
2021/03/09 08:14:24;;;;;;;15.97;4.77;;;2.60;96.80;;;3.39;52.79;101679.97;5018078;28;20237;-75
2021/03/09 08:16:51;;;;;;;15.63;4.53;;;2.70;96.40;;;3.50;52.50;101673.13;5009915;28;20304;-75
2021/03/09 08:19:41;;;;;;;15.27;4.80;;;2.80;96.30;;;3.56;52.38;101677.47;5013944;28;20205;-75
2021/03/09 08:22:08;;;;;;;12.43;4.10;;;2.90;96.40;;;3.64;52.48;101668.03;5008670;28;20423;-76
2021/03/09 08:24:56;;;;;;;17.57;5.63;;;3.00;96.10;;;3.67;52.07;101666.34;5019971;28;20206;-75
2021/03/09 08:27:40;;;;;;;12.70;4.37;;;3.00;96.00;;;3.73;52.01;101665.53;5016128;28;20616;-77
2021/03/09 08:30:40;;;;;;;15.93;5.13;;;3.10;96.20;;;3.80;51.96;101667.28;5015941;28;20663;-76
2021/03/09 08:33:31;;;;;;;15.27;5.07;;;3.10;95.90;;;3.80;52.00;101667.28;5012812;28;20717;-76
2021/03/09 08:35:58;;;;;;;16.23;5.40;;;3.10;95.70;;;3.82;51.55;101669.00;5009963;28;20296;-76
2021/03/09 08:38:30;;;;;;;15.43;5.07;;;3.10;95.60;;;3.85;51.55;101657.81;5018163;28;21223;-77
2021/03/09 08:41:15;;;;;;;15.20;4.50;;;3.10;95.50;;;3.83;51.79;101662.13;5009705;28;20261;-76
2021/03/09 08:43:43;;;;;;;16.57;5.80;;;3.10;95.60;;;3.80;51.84;101654.34;5012398;28;20225;-75
2021/03/09 08:46:15;;;;;;;13.03;4.53;;;3.10;95.80;;;3.79;51.64;101652.59;5011460;28;20685;-76
2021/03/09 08:48:50;;;;;;;13.83;5.30;;;3.10;95.80;;;3.85;52.12;101655.25;5018571;28;20688;-76
2021/03/09 08:51:51;;;;;;;16.23;5.23;;;3.20;95.70;;;3.87;51.71;101652.66;5016961;28;20342;-75
2021/03/09 08:54:30;;;;;;;14.37;4.80;;;3.20;95.50;;;3.88;51.27;101655.25;5016068;28;20546;-75
2021/03/09 08:57:00;;;;;;;18.27;5.47;;;3.20;95.80;;;4.02;51.57;101652.72;5006199;28;20284;-75
2021/03/09 08:59:29;;;;;;;14.80;5.30;;;3.30;95.80;;;4.09;51.68;101647.56;5014338;28;20210;-76
2021/03/09 09:02:09;;;;;;;14.97;5.13;;;3.40;95.40;;;4.17;51.39;101642.41;5013545;28;20213;-76
2021/03/09 09:04:37;;;;;;;16.30;5.37;;;3.50;95.50;;;4.18;51.11;101639.84;5036908;28;20204;-78
2021/03/09 09:07:29;;;;;;;15.03;4.70;;;3.50;95.30;;;4.18;51.40;101642.44;5013167;28;20662;-76
2021/03/09 09:09:59;;;;;;;15.93;4.73;;;3.50;94.90;;;4.19;51.28;101648.44;5022404;28;20237;-76
2021/03/09 09:12:31;;;;;;;15.03;4.50;;;3.50;95.30;;;4.24;51.42;101639.84;5013453;28;20218;-78
2021/03/09 09:15:22;;;;;;;12.60;4.73;;;3.50;94.90;;;4.29;51.09;101640.72;5033354;28;20217;-74
2021/03/09 09:17:52;;;;;;;13.93;5.00;;;3.60;94.80;;;4.37;50.68;101636.41;5013160;28;20215;-76
2021/03/09 09:20:35;;;;;;;14.73;4.57;;;3.70;94.90;;;4.51;50.54;101634.72;5015980;28;20190;-77
2021/03/09 09:23:07;;;;;;;12.40;4.57;;;3.90;94.40;;;4.58;50.19;101631.28;5017017;28;20201;-75
2021/03/09 09:25:35;;;;;;;18.37;4.83;;;3.90;94.30;;;4.72;49.44;101623.53;5012395;28;20205;-75
2021/03/09 09:28:03;;;;;;;13.07;4.70;;;4.10;93.60;;;4.81;49.10;101624.41;5013512;28;20599;-76
2021/03/09 09:30:39;;;;;;;16.80;5.03;;;4.20;93.10;;;4.87;48.87;101624.38;5007721;28;20229;-76
2021/03/09 09:33:07;;;;;;;12.70;4.65;;;4.30;93.40;;;5.00;49.16;101620.97;5013027;28;20189;-76
2021/03/09 09:35:34;;;;;;;17.60;4.95;;;4.40;93.00;;;5.08;48.41;101624.41;5005155;28;20563;-75
2021/03/09 09:38:06;;;;;;;13.10;4.37;;;4.50;93.00;;;5.13;48.03;101621.81;5012356;28;20225;-76
2021/03/09 09:40:36;;;;;;;13.43;4.10;;;4.50;92.30;;;5.22;47.88;101615.75;5015138;28;20336;-74
2021/03/09 09:43:07;;;;;;;14.00;4.07;;;4.60;92.20;;;5.36;47.91;101616.59;5016495;28;20206;-75
2021/03/09 09:45:41;;;;;;;10.80;3.63;;;4.70;92.00;;;5.48;46.73;101619.13;5026507;28;20205;-75
2021/03/09 09:48:15;;;;;;;11.15;3.53;;;4.80;90.80;;;5.52;46.41;101616.56;5014741;28;20186;-74
2021/03/09 09:50:44;;;;;;;12.50;3.80;;;4.90;90.70;;;5.60;46.16;101614.81;5011925;28;20224;-75
2021/03/09 09:53:11;;;;;;;13.15;3.38;;;4.90;90.50;;;5.69;45.83;101614.78;5013177;28;20284;-77
2021/03/09 09:55:38;;;;;;;12.02;3.65;;;5.00;89.70;;;5.68;45.24;101612.16;5007548;28;20387;-74
2021/03/09 09:58:04;;;;;;;11.13;3.30;;;5.00;89.30;;;5.71;45.07;101612.19;5014784;28;20646;-76
2021/03/09 10:00:35;;;;;;;10.50;3.22;;;5.00;88.40;;;5.72;44.44;101613.91;5032872;28;20221;-77
2021/03/09 10:03:16;;;;;;;9.80;3.40;;;5.10;87.80;;;5.81;44.25;101613.88;5039428;28;20260;-75
2021/03/09 10:05:45;;;;;;;12.75;3.20;;;5.20;88.20;;;5.86;44.27;101612.16;5008284;28;20288;-73
2021/03/09 10:08:32;;;;;;;11.73;3.90;;;5.20;88.20;;;5.92;44.59;101609.53;5015362;28;20213;-74
2021/03/09 10:11:00;;;;;;;13.52;4.03;;;5.30;88.30;;;6.01;44.43;101606.91;5012154;28;20218;-76
2021/03/09 10:13:27;;;;;;;11.85;3.67;;;5.40;87.90;;;6.13;44.34;101606.81;5013203;28;20213;-75
2021/03/09 10:15:54;;;;;;;14.00;3.65;;;5.50;87.30;;;6.23;44.16;101608.50;5021905;28;20202;-76
2021/03/09 10:18:27;;;;;;;14.73;3.80;;;5.60;87.90;;;6.35;44.41;101605.81;5034904;28;20201;-75
2021/03/09 10:21:18;;;;;;;12.52;3.85;;;5.70;88.10;;;6.40;43.72;101603.22;5039419;28;20232;-75
2021/03/09 10:23:54;;;;;;;11.90;3.72;;;5.80;85.60;;;6.45;43.15;101599.69;5006230;28;20626;-75
2021/03/09 10:26:33;;;;;;;11.70;3.60;;;5.90;84.70;;;6.50;43.20;101597.94;5007153;28;20186;-75
2021/03/09 10:29:12;;;;;;;11.85;3.45;;;5.90;84.80;;;6.53;43.18;101594.47;5015734;28;20202;-76
2021/03/09 10:31:49;;;;;;;12.23;4.22;;;6.00;84.80;;;6.60;42.69;101593.56;5011026;28;20217;-76
2021/03/09 10:34:16;;;;;;;10.75;3.45;;;6.10;84.40;;;6.68;43.21;101590.00;5014177;28;20213;-75
2021/03/09 10:37:08;;;;;;;8.63;3.33;;;6.10;84.00;;;6.68;42.44;101591.75;5005114;28;20198;-75